createdAt,value
2022-08-17T00:01:51.717Z,33.32
2022-08-17T00:06:44.745Z,31.01
2022-08-17T00:12:03.944Z,34.93
2022-08-17T00:16:58.870Z,33.33
2022-08-17T00:22:34.492Z,34.82
2022-08-17T00:27:12.366Z,27.19
2022-08-17T00:33:14.164Z,30.69
2022-08-17T00:37:26.135Z,33.56
2022-08-17T00:42:33.249Z,32.94
2022-08-17T00:47:40.200Z,31.91
2022-08-17T00:52:48.864Z,26.62
2022-08-17T00:57:55.891Z,28.20
2022-08-17T01:03:02.920Z,30.22
2022-08-17T01:08:09.923Z,27.27
2022-08-17T01:13:16.972Z,27.14
2022-08-17T01:18:23.953Z,28.68
2022-08-17T01:23:31.115Z,26.30
2022-08-17T01:28:54.949Z,28.59
2022-08-17T01:33:44.673Z,31.72
2022-08-17T01:38:51.660Z,30.82
2022-08-17T01:44:00.180Z,31.27
2022-08-17T01:49:07.232Z,30.20
2022-08-17T01:54:15.698Z,29.83
2022-08-17T01:59:22.695Z,29.21
2022-08-17T02:04:29.831Z,29.36
2022-08-17T02:09:37.006Z,26.37
2022-08-17T02:14:43.708Z,27.10
2022-08-17T02:19:50.742Z,24.92
2022-08-17T02:24:59.469Z,25.05
2022-08-17T02:30:04.531Z,24.08
2022-08-17T02:35:11.236Z,22.99
2022-08-17T02:40:18.348Z,22.75
2022-08-17T02:45:24.928Z,24.81
2022-08-17T02:50:31.884Z,23.57
2022-08-17T02:55:39.193Z,23.13
2022-08-17T03:00:46.346Z,25.07
2022-08-17T03:05:53.595Z,21.70
2022-08-17T03:11:00.601Z,21.72
2022-08-17T03:16:09.493Z,23.76
2022-08-17T03:21:16.497Z,20.48
2022-08-17T03:26:23.568Z,22.95
2022-08-17T03:31:30.087Z,24.73
2022-08-17T03:36:37.249Z,20.74
2022-08-17T03:41:44.237Z,22.19
2022-08-17T03:46:51.383Z,23.15
2022-08-17T03:51:58.377Z,23.77
2022-08-17T03:57:05.403Z,23.91
2022-08-17T04:02:12.399Z,23.44
2022-08-17T04:07:19.497Z,22.28
2022-08-17T04:12:26.595Z,22.33
2022-08-17T04:17:33.616Z,20.03
2022-08-17T04:22:40.956Z,20.81
2022-08-17T04:27:48.077Z,19.98
2022-08-17T04:33:05.447Z,21.45
2022-08-17T04:38:02.733Z,21.20
2022-08-17T04:43:09.829Z,19.16
2022-08-17T04:48:17.032Z,19.65
2022-08-17T04:53:24.017Z,18.93
2022-08-17T04:58:32.341Z,21.32
2022-08-17T05:03:39.334Z,20.30
2022-08-17T05:08:46.414Z,18.97
2022-08-17T05:13:53.490Z,18.53
2022-08-17T05:19:00.686Z,16.43
2022-08-17T05:24:35.405Z,17.26
2022-08-17T05:29:16.793Z,18.94
2022-08-17T05:34:28.486Z,20.67
2022-08-17T05:39:25.688Z,17.03
2022-08-17T05:44:36.266Z,19.40
2022-08-17T05:49:35.473Z,18.03
2022-08-17T05:54:43.998Z,17.84
2022-08-17T05:59:55.372Z,20.50
2022-08-17T06:04:52.912Z,16.05
2022-08-17T06:10:03.332Z,17.60
2022-08-17T06:15:00.337Z,16.39
2022-08-17T06:20:07.506Z,15.17
2022-08-17T06:25:19.890Z,14.70
2022-08-17T06:30:16.040Z,15.94
2022-08-17T06:35:23.053Z,13.63
2022-08-17T06:40:30.790Z,13.15
2022-08-17T06:45:39.027Z,12.88
2022-08-17T06:50:46.868Z,11.20
2022-08-17T06:55:55.016Z,12.38
2022-08-17T07:06:08.386Z,14.19
2022-08-17T07:11:15.832Z,14.33
2022-08-17T07:16:23.418Z,14.25
2022-08-17T07:21:38.068Z,14.71
2022-08-17T07:26:35.709Z,14.48
2022-08-17T07:31:44.305Z,13.81
2022-08-17T07:36:51.458Z,12.61
2022-08-17T07:42:01.939Z,15.26
2022-08-17T07:46:59.132Z,13.89
2022-08-17T07:52:24.280Z,14.15
2022-08-17T07:57:13.410Z,16.18
2022-08-17T08:02:22.579Z,15.36
2022-08-17T08:07:34.577Z,14.85
2022-08-17T08:12:33.453Z,14.42
2022-08-17T08:17:39.598Z,14.61
2022-08-17T08:22:48.367Z,14.94
2022-08-17T08:27:50.096Z,14.63
2022-08-17T08:32:58.445Z,16.43
2022-08-17T08:38:09.150Z,15.08
2022-08-17T08:43:06.327Z,16.00
2022-08-17T08:48:22.719Z,16.59
2022-08-17T08:53:19.361Z,14.53
2022-08-17T08:58:32.022Z,13.56
2022-08-17T09:03:51.821Z,16.94
2022-08-17T09:08:42.462Z,14.33
2022-08-17T09:13:54.693Z,14.66
2022-08-17T09:19:01.849Z,13.57
2022-08-17T09:24:15.117Z,14.87
2022-08-17T09:29:05.744Z,17.10
2022-08-17T09:34:21.465Z,15.00
2022-08-17T09:39:18.156Z,15.28
2022-08-17T09:44:26.539Z,14.16
2022-08-17T09:49:33.691Z,15.30
2022-08-17T09:54:47.062Z,13.33
2022-08-17T09:59:44.149Z,14.11
2022-08-17T10:04:56.421Z,12.50
2022-08-17T10:09:52.793Z,13.70
2022-08-17T10:15:08.059Z,14.34
2022-08-17T10:20:02.411Z,13.09
2022-08-17T10:25:21.808Z,13.42
2022-08-17T10:30:11.784Z,14.97
2022-08-17T10:35:20.128Z,14.09
2022-08-17T10:40:27.377Z,13.28
2022-08-17T10:45:34.878Z,14.26
2022-08-17T10:50:44.311Z,12.09
2022-08-17T10:55:51.466Z,13.64
2022-08-17T11:01:03.444Z,12.08
2022-08-17T11:06:00.619Z,14.93
2022-08-17T11:11:10.229Z,16.09
2022-08-17T11:16:17.504Z,11.20
2022-08-17T11:21:32.286Z,14.66
2022-08-17T11:26:29.686Z,12.52
2022-08-17T11:31:41.682Z,13.13
2022-08-17T11:36:38.452Z,13.68
2022-08-17T11:41:45.845Z,12.96
2022-08-17T11:46:53.034Z,11.97
2022-08-17T11:52:00.286Z,12.20
2022-08-17T11:57:09.818Z,10.32
2022-08-17T12:02:10.074Z,10.42
2022-08-17T12:07:07.874Z,8.54
2022-08-17T12:12:15.320Z,10.12
2022-08-17T12:17:50.576Z,10.08
2022-08-17T12:22:29.310Z,8.66
2022-08-17T12:27:47.604Z,8.78
2022-08-17T12:32:44.436Z,7.38
2022-08-17T12:37:58.573Z,9.15
2022-08-17T12:42:55.987Z,8.16
2022-08-17T12:48:04.015Z,9.23
2022-08-17T12:53:11.199Z,7.06
2022-08-17T12:58:25.447Z,10.94
2022-08-17T13:03:22.673Z,8.71
2022-08-17T13:08:35.570Z,7.25
2022-08-17T13:13:32.928Z,11.32
2022-08-17T13:18:41.120Z,10.35
2022-08-17T13:23:50.966Z,10.89
2022-08-17T13:28:55.066Z,9.87
2022-08-17T13:34:02.449Z,8.69
2022-08-17T13:39:09.158Z,6.78
2022-08-17T13:44:27.533Z,7.98
2022-08-17T13:49:24.735Z,8.72
2022-08-17T13:54:34.339Z,6.51
2022-08-17T13:59:52.502Z,6.37
2022-08-17T14:04:41.105Z,9.03
2022-08-17T14:09:38.336Z,7.56
2022-08-17T14:14:47.182Z,6.67
2022-08-17T14:19:54.448Z,7.45
2022-08-17T14:25:04.665Z,6.81
2022-08-17T14:30:12.260Z,6.98
2022-08-17T14:35:19.482Z,9.21
2022-08-17T14:40:26.786Z,7.18
2022-08-17T14:45:34.347Z,9.08
2022-08-17T14:50:54.042Z,8.79
2022-08-17T14:55:50.282Z,8.17
2022-08-17T15:00:55.726Z,6.14
2022-08-17T15:05:56.238Z,7.79
2022-08-17T15:11:14.284Z,8.03
2022-08-17T15:16:08.274Z,6.76
2022-08-17T15:21:24.690Z,8.22
2022-08-17T15:26:25.687Z,8.88
2022-08-17T15:31:37.087Z,10.16
2022-08-17T15:36:37.098Z,8.42
2022-08-17T15:41:45.257Z,7.18
2022-08-17T15:46:52.483Z,8.54
2022-08-17T15:51:59.742Z,6.78
2022-08-17T15:57:07.198Z,8.56
2022-08-17T16:03:15.877Z,7.66
2022-08-17T16:12:26.686Z,8.92
2022-08-17T16:17:39.999Z,7.01
2022-08-17T16:22:42.912Z,7.44
2022-08-17T16:27:54.238Z,8.13
2022-08-17T16:32:51.940Z,11.31
2022-08-17T16:38:06.998Z,5.55
2022-08-17T16:43:02.561Z,5.72
2022-08-17T16:48:10.798Z,6.71
2022-08-17T16:53:18.109Z,5.22
2022-08-17T16:58:26.605Z,5.20
2022-08-17T17:04:36.265Z,6.62
2022-08-17T17:08:44.418Z,6.51
2022-08-17T17:13:56.689Z,7.36
2022-08-17T17:18:53.998Z,8.14
2022-08-17T17:24:07.616Z,8.05
2022-08-17T17:29:04.824Z,6.63
2022-08-17T17:34:16.088Z,9.32
2022-08-17T17:39:13.640Z,6.81
2022-08-17T17:44:33.884Z,9.02
2022-08-17T17:49:23.416Z,6.98
2022-08-17T17:54:29.139Z,10.23
2022-08-17T17:59:43.353Z,8.32
2022-08-17T18:04:52.548Z,7.38
2022-08-17T18:09:51.720Z,7.07
2022-08-17T18:14:59.994Z,6.54
2022-08-17T18:19:57.925Z,8.35
2022-08-17T18:25:09.726Z,8.95
2022-08-17T18:30:09.162Z,10.67
2022-08-17T18:35:14.523Z,9.26
2022-08-17T18:40:25.435Z,8.97
2022-08-17T18:45:22.971Z,11.20
2022-08-17T18:50:30.746Z,10.71
2022-08-17T18:55:38.258Z,12.22
2022-08-17T19:00:45.823Z,10.45
2022-08-17T19:05:52.980Z,11.46
2022-08-17T19:11:02.019Z,11.98
2022-08-17T19:16:13.757Z,13.97
2022-08-17T19:21:09.535Z,11.97
2022-08-17T19:26:51.039Z,13.02
2022-08-17T19:31:23.618Z,12.36
2022-08-17T19:36:31.368Z,11.62
2022-08-17T19:41:42.983Z,11.94
2022-08-17T19:46:49.818Z,12.43
2022-08-17T19:51:53.313Z,14.78
2022-08-17T19:57:02.036Z,12.25
2022-08-17T20:02:11.103Z,15.34
2022-08-17T20:07:18.357Z,11.00
2022-08-17T20:12:26.514Z,11.79
2022-08-17T20:17:34.639Z,13.12
2022-08-17T20:22:49.597Z,13.49
2022-08-17T20:27:50.754Z,14.23
2022-08-17T20:32:57.958Z,12.70
2022-08-17T20:38:05.202Z,13.29
2022-08-17T20:43:12.566Z,13.53
2022-08-17T20:48:36.841Z,12.94
2022-08-17T20:53:26.662Z,13.90
2022-08-17T20:58:33.877Z,11.30
2022-08-17T21:03:50.222Z,11.74
2022-08-17T21:08:49.548Z,16.24
2022-08-17T21:13:56.607Z,11.56
2022-08-17T21:19:03.825Z,14.53
2022-08-17T21:24:12.508Z,12.55
2022-08-17T21:29:31.332Z,13.83
2022-08-17T21:34:30.794Z,14.98
2022-08-17T21:39:38.075Z,12.10
2022-08-17T21:44:45.420Z,12.52
2022-08-17T21:49:52.577Z,12.57
2022-08-17T21:55:01.672Z,9.93
2022-08-17T22:00:08.847Z,16.56
2022-08-17T22:05:16.085Z,15.68
2022-08-17T22:10:23.276Z,15.71
2022-08-17T22:15:30.608Z,13.00
2022-08-17T22:20:37.834Z,15.66
2022-08-17T22:25:45.071Z,10.35
2022-08-17T22:30:52.210Z,14.72
2022-08-17T22:35:59.412Z,10.99
2022-08-17T22:41:06.551Z,12.81
2022-08-17T22:46:13.266Z,14.74
2022-08-17T22:51:20.630Z,11.76
2022-08-17T22:56:27.762Z,14.83
2022-08-17T23:01:34.649Z,12.26
2022-08-17T23:06:41.808Z,15.88
2022-08-17T23:11:50.328Z,13.57
2022-08-17T23:16:55.603Z,12.90
2022-08-17T23:22:02.869Z,15.75
2022-08-17T23:27:09.974Z,11.60
2022-08-17T23:32:17.092Z,15.11
2022-08-17T23:37:31.500Z,15.15
2022-08-17T23:42:28.749Z,13.30
2022-08-17T23:47:35.860Z,19.47
2022-08-17T23:52:43.044Z,17.93
2022-08-17T23:57:50.252Z,18.06
